Time;durP1;ratioP1;P1;durP2;ratioP2;P2;SDS_P1;SDS_P2;PMS_P1;PMS_P2;Temp;Humidity;BMP_temperature;BMP_pressure;BME280_temperature;BME280_humidity;BME280_pressure;Samples;Min_cycle;Max_cycle;Signal;HPM_P1;HPM_P2
2021/03/21 00:01:30;;;;;;;;;;;;;;;14.10;64.78;101283.19;5034465;28;1410;-64
2021/03/21 00:03:56;;;;;;;;;;;;;;;14.12;64.69;101281.28;5033748;28;1606;-58
2021/03/21 00:06:21;;;;;;;;;;;;;;;14.10;64.59;101281.38;5033645;28;1894;-58
2021/03/21 00:08:47;;;;;;;;;;;;;;;14.13;64.64;101285.69;5032766;28;1606;-64
2021/03/21 00:11:12;;;;;;;;;;;;;;;14.11;64.67;101300.88;5033944;28;1216;-64
2021/03/21 00:13:38;;;;;;;;;;;;;;;14.08;64.64;101295.72;5033253;28;1744;-64
2021/03/21 00:16:04;;;;;;;;;;;;;;;14.09;64.67;101284.16;5032906;28;1725;-58
2021/03/21 00:18:34;;;;;;;;;;;;;;;14.06;64.69;101303.78;5033792;28;1694;-59
2021/03/21 00:21:00;;;;;;;;;;;;;;;14.08;64.92;101301.03;5031759;28;1407;-65
2021/03/21 00:23:26;;;;;;;;;;;;;;;14.06;64.71;101287.84;5034002;28;970;-58
2021/03/21 00:25:51;;;;;;;;;;;;;;;14.09;64.99;101297.47;5033415;28;1976;-58
2021/03/21 00:28:18;;;;;;;;;;;;;;;14.08;64.68;101293.06;5033004;28;1590;-58
2021/03/21 00:30:45;;;;;;;;;;;;;;;14.04;64.91;101291.53;5032706;28;1610;-64
2021/03/21 00:33:15;;;;;;;;;;;;;;;14.04;65.01;101288.88;5034011;28;889;-58
2021/03/21 00:35:40;;;;;;;;;;;;;;;14.03;64.91;101292.50;5034512;28;1268;-58
2021/03/21 00:38:07;;;;;;;;;;;;;;;14.04;64.77;101294.19;5036856;28;1725;-61
2021/03/21 00:40:33;;;;;;;;;;;;;;;14.03;64.85;101303.13;5036971;28;1749;-59
2021/03/21 00:42:58;;;;;;;;;;;;;;;14.04;65.03;101296.84;5036844;28;1614;-59
2021/03/21 00:45:25;;;;;;;;;;;;;;;14.02;64.84;101296.09;5036719;28;1890;-58
2021/03/21 00:47:52;;;;;;;;;;;;;;;14.02;65.09;101301.41;5037841;28;744;-58
2021/03/21 00:50:32;;;;;;;;;;;;;;;14.02;65.14;101307.56;5036641;28;1682;-65
2021/03/21 00:52:58;;;;;;;;;;;;;;;14.07;65.16;101288.72;5018785;28;1395;-64
2021/03/21 00:55:23;;;;;;;;;;;;;;;13.98;64.88;101291.91;5037185;28;1186;-58
2021/03/21 00:57:48;;;;;;;;;;;;;;;14.01;64.98;101281.09;5036590;28;1649;-64
2021/03/21 01:00:19;;;;;;;;;;;;;;;14.03;65.05;101272.06;5035915;28;1511;-64
2021/03/21 01:02:45;;;;;;;;;;;;;;;13.99;65.20;101269.69;5036527;28;1718;-58
2021/03/21 01:05:27;;;;;;;;;;;;;;;14.00;64.95;101272.25;5036653;28;1893;-59
2021/03/21 01:07:54;;;;;;;;;;;;;;;14.00;65.38;101263.41;5036478;28;833;-64
2021/03/21 01:10:22;;;;;;;;;;;;;;;14.01;64.83;101251.84;5036347;28;1546;-64
2021/03/21 01:12:49;;;;;;;;;;;;;;;14.00;64.86;101244.81;5035661;28;1683;-58
2021/03/21 01:15:14;;;;;;;;;;;;;;;14.00;64.80;101243.00;5018529;28;1579;-65
2021/03/21 01:17:40;;;;;;;;;;;;;;;14.01;64.69;101235.91;5037288;28;801;-64
2021/03/21 01:20:05;;;;;;;;;;;;;;;14.07;64.65;101243.50;5036206;28;1824;-64
2021/03/21 01:22:31;;;;;;;;;;;;;;;14.06;64.73;101239.13;5035410;28;1582;-58
2021/03/21 01:24:56;;;;;;;;;;;;;;;14.03;64.76;101236.66;5015823;28;1257;-64
2021/03/21 01:27:22;;;;;;;;;;;;;;;14.05;64.71;101246.25;5035539;28;1989;-64
2021/03/21 01:29:47;;;;;;;;;;;;;;;14.06;64.61;101244.44;5035406;28;1595;-64
2021/03/21 01:32:12;;;;;;;;;;;;;;;14.07;64.53;101240.84;5036878;28;851;-58
2021/03/21 01:34:38;;;;;;;;;;;;;;;14.06;64.50;101257.72;5036074;28;1384;-59
2021/03/21 01:37:03;;;;;;;;;;;;;;;14.05;64.71;101256.03;5035339;28;1586;-58
2021/03/21 01:39:28;;;;;;;;;;;;;;;14.03;64.72;101242.81;5017556;28;1327;-64
2021/03/21 01:41:59;;;;;;;;;;;;;;;14.06;65.00;101245.28;5035687;28;1255;-58
2021/03/21 01:44:24;;;;;;;;;;;;;;;14.03;64.79;101239.31;5035609;28;1387;-64
2021/03/21 01:46:56;;;;;;;;;;;;;;;14.03;65.53;101244.63;5036244;28;1956;-59
2021/03/21 01:49:37;;;;;;;;;;;;;;;13.99;65.04;101240.44;5034798;28;1588;-64
2021/03/21 01:52:05;;;;;;;;;;;;;;;14.00;64.48;101250.97;5018932;28;1287;-59
2021/03/21 01:54:31;;;;;;;;;;;;;;;14.00;64.81;101255.44;5035339;28;1753;-64
2021/03/21 01:56:57;;;;;;;;;;;;;;;13.98;64.95;101244.88;5034510;28;1629;-64
2021/03/21 01:59:30;;;;;;;;;;;;;;;13.98;65.00;101238.72;5035165;28;1180;-65
2021/03/21 02:01:57;;;;;;;;;;;;;;;13.98;64.87;101236.06;5036270;28;1365;-66
2021/03/21 02:04:23;;;;;;;;;;;;;;;13.98;64.79;101236.06;5035042;28;1539;-58
2021/03/21 02:07:03;;;;;;;;;;;;;;;13.96;65.07;101228.16;5035093;28;1966;-59
2021/03/21 02:09:41;;;;;;;;;;;;;;;13.95;65.00;101236.22;5034660;28;1414;-64
2021/03/21 02:12:21;;;;;;;;;;;;;;;13.95;64.81;101212.31;5024967;28;1209;-58
2021/03/21 02:15:05;;;;;;;;;;;;;;;14.00;64.98;101242.16;5027119;28;1598;-65
2021/03/21 02:17:36;;;;;;;;;;;;;;;13.95;64.95;101245.09;5027152;28;1287;-59
2021/03/21 02:20:21;;;;;;;;;;;;;;;13.97;65.27;101239.69;5017689;28;1687;-58
2021/03/21 02:22:57;;;;;;;;;;;;;;;13.96;64.86;101246.78;5034684;28;1193;-64
2021/03/21 02:25:34;;;;;;;;;;;;;;;14.00;64.91;101272.25;5017128;28;1918;-64
2021/03/21 02:28:26;;;;;;;;;;;;;;;13.97;64.97;101263.63;5034843;28;1336;-58
2021/03/21 02:30:53;;;;;;;;;;;;;;;13.97;65.07;101251.16;5019952;28;1810;-60
2021/03/21 02:33:18;;;;;;;;;;;;;;;13.96;65.05;101217.53;5034805;28;1550;-65
2021/03/21 02:36:03;;;;;;;;;;;;;;;13.92;64.89;101226.63;5034662;28;844;-65
2021/03/21 02:38:35;;;;;;;;;;;;;;;13.95;64.92;101215.84;5034662;28;1339;-58
2021/03/21 02:41:02;;;;;;;;;;;;;;;13.98;64.88;101236.91;5033117;28;1387;-64
2021/03/21 02:43:30;;;;;;;;;;;;;;;13.96;64.72;101230.81;5034358;28;1745;-58
2021/03/21 02:45:58;;;;;;;;;;;;;;;13.99;64.72;101249.28;5034496;28;1916;-58
2021/03/21 02:48:28;;;;;;;;;;;;;;;13.98;64.67;101244.03;5034661;28;1630;-64
2021/03/21 02:50:59;;;;;;;;;;;;;;;14.02;64.66;101245.56;5034910;28;783;-58
2021/03/21 02:53:32;;;;;;;;;;;;;;;13.98;64.70;101250.19;5034136;28;1364;-59
2021/03/21 02:55:59;;;;;;;;;;;;;;;13.98;64.57;101230.75;5033584;28;1296;-65
2021/03/21 02:58:27;;;;;;;;;;;;;;;14.02;65.07;101232.28;5033476;28;1352;-58
2021/03/21 03:01:04;;;;;;;;;;;;;;;13.98;64.94;101197.03;5047609;23;2634;-46
2021/03/21 03:03:40;;;;;;;;;;;;;;;14.00;65.03;101213.75;5041480;28;1616;-46
2021/03/21 03:06:09;;;;;;;;;;;;;;;13.99;64.81;101198.75;5041358;28;1987;-46
2021/03/21 03:08:55;;;;;;;;;;;;;;;13.95;64.75;101238.88;5043501;28;798;-46
2021/03/21 03:11:23;;;;;;;;;;;;;;;14.00;64.75;101224.38;5055259;22;3664;-65
2021/03/21 03:13:51;;;;;;;;;;;;;;;13.93;64.86;101204.44;5060377;28;1624;-64
2021/03/21 03:16:20;;;;;;;;;;;;;;;13.91;64.94;101204.53;5063949;28;1603;-58
2021/03/21 03:18:53;;;;;;;;;;;;;;;13.96;64.87;101208.72;5063814;28;1403;-58
2021/03/21 03:21:18;;;;;;;;;;;;;;;13.97;64.21;101210.44;5063298;28;1205;-64
2021/03/21 03:23:47;;;;;;;;;;;;;;;13.98;64.81;101217.44;5062787;28;1557;-58
2021/03/21 03:26:18;;;;;;;;;;;;;;;13.91;64.88;101220.47;5063923;28;1989;-63
2021/03/21 03:29:06;;;;;;;;;;;;;;;13.94;65.06;101222.09;5064243;28;808;-65
2021/03/21 03:31:35;;;;;;;;;;;;;;;13.88;64.81;101236.59;5058052;28;1308;-58
2021/03/21 03:34:01;;;;;;;;;;;;;;;13.94;64.94;101206.13;5062430;28;1571;-64
2021/03/21 03:36:26;;;;;;;;;;;;;;;13.93;64.48;101197.31;5060145;28;1597;-65
2021/03/21 03:38:52;;;;;;;;;;;;;;;13.91;64.96;101191.22;5062118;28;1564;-58
2021/03/21 03:41:23;;;;;;;;;;;;;;;13.89;64.95;101187.81;5063484;28;1520;-58
2021/03/21 03:43:57;;;;;;;;;;;;;;;13.91;65.33;101201.03;5061352;28;1007;-58
2021/03/21 03:46:41;;;;;;;;;;;;;;;13.87;65.19;101197.69;5063937;28;1939;-64
2021/03/21 03:49:29;;;;;;;;;;;;;;;13.91;65.09;101215.16;5054694;28;1316;-58
2021/03/21 03:51:58;;;;;;;;;;;;;;;13.88;65.15;101217.13;5055111;28;1232;-59
2021/03/21 03:54:33;;;;;;;;;;;;;;;13.89;64.89;101229.50;5065719;28;1554;-64
2021/03/21 03:56:58;;;;;;;;;;;;;;;13.90;64.78;101239.16;5043831;28;1286;-58
2021/03/21 03:59:27;;;;;;;;;;;;;;;13.94;64.76;101238.03;5061442;28;1224;-65
2021/03/21 04:01:55;;;;;;;;;;;;;;;13.91;64.72;101219.63;5041249;28;1487;-59
2021/03/21 04:04:39;;;;;;;;;;;;;;;13.93;64.54;101223.91;5051846;28;1692;-58
2021/03/21 04:07:16;;;;;;;;;;;;;;;13.92;64.68;101216.84;5051640;28;1980;-62
2021/03/21 04:10:02;;;;;;;;;;;;;;;13.91;64.92;101209.00;5051692;28;1592;-58
2021/03/21 04:12:27;;;;;;;;;;;;;;;13.93;64.71;101193.81;5054389;28;1426;-58
2021/03/21 04:15:05;;;;;;;;;;;;;;;13.91;64.87;101212.50;5055750;28;1545;-58
2021/03/21 04:17:43;;;;;;;;;;;;;;;13.89;65.00;101195.78;5048503;28;765;-65
2021/03/21 04:20:11;;;;;;;;;;;;;;;13.90;64.77;101210.78;5055474;28;1704;-58
2021/03/21 04:22:43;;;;;;;;;;;;;;;13.92;64.75;101216.84;5037962;28;1561;-62
2021/03/21 04:25:17;;;;;;;;;;;;;;;13.92;65.04;101226.63;5054574;28;1248;-64
2021/03/21 04:27:45;;;;;;;;;;;;;;;13.88;64.76;101220.66;5054594;28;1561;-64
2021/03/21 04:30:37;;;;;;;;;;;;;;;13.94;64.77;101227.41;5055306;28;1577;-65
2021/03/21 04:33:05;;;;;;;;;;;;;;;13.91;64.80;101214.31;5052184;28;1078;-64
2021/03/21 04:35:30;;;;;;;;;;;;;;;13.90;64.73;101207.25;5037714;28;1277;-58
2021/03/21 04:38:04;;;;;;;;;;;;;;;13.89;64.12;101190.47;5055110;28;1425;-64
2021/03/21 04:40:30;;;;;;;;;;;;;;;13.89;64.86;101197.59;5051103;28;1692;-59
2021/03/21 04:43:00;;;;;;;;;;;;;;;13.85;64.64;101178.31;5037545;28;1393;-58
2021/03/21 04:45:31;;;;;;;;;;;;;;;13.88;64.96;101195.88;5054820;28;1970;-64
2021/03/21 04:48:00;;;;;;;;;;;;;;;13.85;64.95;101186.28;5038352;28;1282;-64
2021/03/21 04:50:25;;;;;;;;;;;;;;;13.88;64.77;101178.09;5055059;28;1680;-64
2021/03/21 04:52:58;;;;;;;;;;;;;;;13.87;64.67;101187.03;5055326;28;1652;-58
2021/03/21 04:55:40;;;;;;;;;;;;;;;13.86;65.52;101173.84;5055231;28;1552;-65
2021/03/21 04:58:12;;;;;;;;;;;;;;;13.88;65.14;101171.94;5053384;28;1272;-58
2021/03/21 05:00:42;;;;;;;;;;;;;;;13.88;64.84;101209.16;5055459;28;868;-64
2021/03/21 05:03:10;;;;;;;;;;;;;;;13.86;64.88;101190.63;5054592;28;1756;-65
2021/03/21 05:05:41;;;;;;;;;;;;;;;13.84;65.01;101197.00;5054015;28;1898;-58
2021/03/21 05:08:13;;;;;;;;;;;;;;;13.85;65.13;101204.03;5037936;28;1177;-64
2021/03/21 05:10:40;;;;;;;;;;;;;;;13.83;64.92;101196.16;5053688;28;1378;-64
2021/03/21 05:13:05;;;;;;;;;;;;;;;13.82;65.09;101205.06;5054857;28;1664;-58
2021/03/21 05:15:41;;;;;;;;;;;;;;;13.83;65.15;101211.25;5054550;28;1601;-64
2021/03/21 05:18:12;;;;;;;;;;;;;;;13.83;64.86;101205.94;5055247;28;809;-59
2021/03/21 05:20:42;;;;;;;;;;;;;;;13.85;64.48;101210.22;5054343;28;1337;-58
2021/03/21 05:23:10;;;;;;;;;;;;;;;13.84;64.68;101202.31;5052681;28;1727;-58
2021/03/21 05:25:39;;;;;;;;;;;;;;;13.91;64.76;101224.94;5054379;28;1977;-59
2021/03/21 05:28:17;;;;;;;;;;;;;;;13.86;64.86;101214.56;5054208;28;1217;-64
2021/03/21 05:30:43;;;;;;;;;;;;;;;13.89;64.75;101222.38;5054366;28;1620;-63
2021/03/21 05:33:08;;;;;;;;;;;;;;;13.95;64.61;101233.56;5055274;28;821;-58
2021/03/21 05:35:36;;;;;;;;;;;;;;;13.87;64.77;101229.59;5053984;28;1595;-65
2021/03/21 05:38:14;;;;;;;;;;;;;;;13.86;64.78;101230.50;5053661;28;1320;-58
2021/03/21 05:40:42;;;;;;;;;;;;;;;13.87;64.68;101240.22;5053250;28;1375;-58
2021/03/21 05:43:12;;;;;;;;;;;;;;;13.87;65.03;101237.56;5050011;28;1661;-65
2021/03/21 05:45:53;;;;;;;;;;;;;;;13.83;64.82;101233.38;5053945;28;1901;-59
2021/03/21 05:48:37;;;;;;;;;;;;;;;13.84;64.88;101252.81;5054151;28;1604;-58
2021/03/21 05:51:05;;;;;;;;;;;;;;;13.85;64.88;101230.63;5053730;28;896;-59
2021/03/21 05:53:50;;;;;;;;;;;;;;;13.92;64.68;101248.75;5053884;28;1786;-59
2021/03/21 05:56:33;;;;;;;;;;;;;;;14.01;64.02;101223.44;5045095;28;1530;-65
2021/03/21 05:59:25;;;;;;;;;;;;;;;14.18;63.98;101233.06;5046040;28;1545;-59
2021/03/21 06:02:09;;;;;;;;;;;;;;;14.33;63.97;101210.84;5045184;28;1374;-58
2021/03/21 06:04:41;;;;;;;;;;;;;;;14.43;63.36;101208.47;5035758;28;1700;-65
2021/03/21 06:07:18;;;;;;;;;;;;;;;14.58;63.31;101203.19;5035883;28;1955;-58
2021/03/21 06:09:47;;;;;;;;;;;;;;;14.67;63.04;101198.13;5054619;28;1562;-65
2021/03/21 06:12:30;;;;;;;;;;;;;;;14.84;62.81;101209.53;5053958;28;1550;-65
2021/03/21 06:15:01;;;;;;;;;;;;;;;14.98;62.49;101201.53;5047099;28;1413;-59
2021/03/21 06:17:26;;;;;;;;;;;;;;;15.06;61.49;101209.88;5046624;28;773;-65
2021/03/21 06:20:07;;;;;;;;;;;;;;;15.19;62.35;101209.06;5054343;28;1755;-65
2021/03/21 06:22:51;;;;;;;;;;;;;;;15.20;61.56;101208.09;5053840;28;1304;-59
2021/03/21 06:25:35;;;;;;;;;;;;;;;15.35;61.94;101203.59;5053938;28;1187;-65
2021/03/21 06:28:19;;;;;;;;;;;;;;;15.37;60.99;101185.69;5053803;28;1393;-59
2021/03/21 06:30:44;;;;;;;;;;;;;;;15.51;61.12;101185.63;5053150;28;1232;-59
2021/03/21 06:33:12;;;;;;;;;;;;;;;15.56;60.74;101186.19;5054646;28;777;-58
2021/03/21 06:35:38;;;;;;;;;;;;;;;15.63;61.24;101186.63;5053838;28;1776;-65
2021/03/21 06:38:06;;;;;;;;;;;;;;;15.75;61.45;101182.31;5054163;28;1743;-58
2021/03/21 06:40:31;;;;;;;;;;;;;;;15.84;61.02;101187.03;5053571;28;1229;-62
2021/03/21 06:43:15;;;;;;;;;;;;;;;15.90;61.05;101174.13;5053892;28;1752;-65
2021/03/21 06:45:55;;;;;;;;;;;;;;;15.99;61.16;101164.63;5052930;28;1885;-58
2021/03/21 06:48:31;;;;;;;;;;;;;;;16.09;59.97;101183.50;5053932;28;1353;-58
2021/03/21 06:51:15;;;;;;;;;;;;;;;16.13;60.28;101177.00;5054493;28;843;-58
2021/03/21 06:53:44;;;;;;;;;;;;;;;16.18;61.08;101180.22;5053453;28;1328;-65
2021/03/21 06:56:35;;;;;;;;;;;;;;;16.26;60.31;101174.34;5053723;28;1549;-58
2021/03/21 06:59:04;;;;;;;;;;;;;;;16.28;60.04;101173.25;5013477;28;1613;-60
2021/03/21 07:01:49;;;;;;;;;;;;;;;16.32;59.80;101181.91;5036815;28;1388;-58
2021/03/21 07:04:30;;;;;;;;;;;;;;;16.36;60.78;101171.88;5035808;28;1411;-65
2021/03/21 07:07:04;;;;;;;;;;;;;;;16.34;59.37;101171.97;5053061;28;2009;-65
2021/03/21 07:09:45;;;;;;;;;;;;;;;16.34;59.41;101171.13;5053343;28;1561;-58
2021/03/21 07:12:24;;;;;;;;;;;;;;;16.36;59.96;101178.06;5026485;28;1306;-59
2021/03/21 07:15:08;;;;;;;;;;;;;;;16.45;59.80;101176.56;5044250;28;1544;-58
2021/03/21 07:17:36;;;;;;;;;;;;;;;16.42;59.19;101187.47;5046542;28;821;-58
2021/03/21 07:20:11;;;;;;;;;;;;;;;16.42;59.83;101179.44;5035736;28;1543;-58
2021/03/21 07:22:36;;;;;;;;;;;;;;;16.47;59.50;101183.50;5053143;28;1546;-65
2021/03/21 07:25:07;;;;;;;;;;;;;;;16.47;60.78;101177.28;5053308;28;1345;-58
2021/03/21 07:27:45;;;;;;;;;;;;;;;16.48;59.23;101165.66;5052470;28;1971;-65
2021/03/21 07:30:10;;;;;;;;;;;;;;;16.55;59.59;101164.25;5053102;28;1593;-61
2021/03/21 07:32:51;;;;;;;;;;;;;;;16.57;60.50;101177.50;5054190;28;739;-58
2021/03/21 07:35:17;;;;;;;;;;;;;;;16.57;59.40;101156.13;5053368;28;1688;-58
2021/03/21 07:38:02;;;;;;;;;;;;;;;16.53;59.49;101171.50;5053238;28;1248;-65
2021/03/21 07:40:36;;;;;;;;;;;;;;;16.53;60.45;101171.50;5053115;28;1600;-58
2021/03/21 07:43:13;;;;;;;;;;;;;;;16.54;60.44;101167.91;5052839;28;1534;-65
2021/03/21 07:45:47;;;;;;;;;;;;;;;16.50;60.61;101177.94;5053661;28;1981;-58
2021/03/21 07:48:26;;;;;;;;;;;;;;;16.55;59.55;101168.75;5057805;28;979;-59
2021/03/21 07:50:54;;;;;;;;;;;;;;;16.55;60.05;101166.91;5057941;28;1313;-60
2021/03/21 07:53:27;;;;;;;;;;;;;;;16.58;59.62;101174.72;5056743;28;1257;-65
2021/03/21 07:56:01;;;;;;;;;;;;;;;16.58;61.15;101169.38;5057315;28;1177;-66
2021/03/21 07:58:26;;;;;;;;;;;;;;;16.55;60.36;101174.94;5054102;28;1600;-65
2021/03/21 08:00:52;;;;;;;;;;;;;;;16.60;61.09;101188.81;5058587;28;814;-65
2021/03/21 08:03:18;;;;;;;;;;;;;;;16.59;60.06;101176.44;5057370;28;1356;-58
2021/03/21 08:05:43;;;;;;;;;;;;;;;16.68;60.22;101189.13;5056695;28;1901;-59
2021/03/21 08:08:14;;;;;;;;;;;;;;;16.68;59.71;101181.09;5058326;28;856;-59
2021/03/21 08:10:40;;;;;;;;;;;;;;;16.75;59.70;101173.53;5056738;28;1545;-59
2021/03/21 08:13:16;;;;;;;;;;;;;;;16.74;60.32;101166.47;5057477;28;1667;-65
2021/03/21 08:15:42;;;;;;;;;;;;;;;16.79;60.18;101169.66;5057049;28;1222;-58
2021/03/21 08:18:09;;;;;;;;;;;;;;;16.81;59.31;101164.19;5058011;28;837;-59
2021/03/21 08:20:48;;;;;;;;;;;;;;;16.79;60.74;101166.13;5056989;28;1324;-59
2021/03/21 08:23:28;;;;;;;;;;;;;;;16.77;59.93;101160.91;5056613;28;1649;-65
2021/03/21 08:25:56;;;;;;;;;;;;;;;16.78;60.86;101162.59;5057090;28;1987;-65
2021/03/21 08:28:23;;;;;;;;;;;;;;;16.81;59.89;101167.78;5057083;28;1783;-65
2021/03/21 08:30:59;;;;;;;;;;;;;;;16.82;60.65;101155.25;5052639;28;1328;-65
2021/03/21 08:33:24;;;;;;;;;;;;;;;16.80;60.30;101151.81;5057424;28;1474;-59
2021/03/21 08:36:05;;;;;;;;;;;;;;;16.83;60.67;101151.59;5057728;28;742;-59
2021/03/21 08:38:31;;;;;;;;;;;;;;;16.83;59.55;101146.25;5057628;28;877;-65
2021/03/21 08:41:00;;;;;;;;;;;;;;;16.81;59.83;101142.81;5056504;28;1556;-59
2021/03/21 08:43:28;;;;;;;;;;;;;;;16.82;60.58;101129.41;5056938;28;1731;-59
2021/03/21 08:45:56;;;;;;;;;;;;;;;16.83;60.26;101130.25;5039093;28;1902;-65
2021/03/21 08:48:21;;;;;;;;;;;;;;;16.80;61.08;101138.47;5056690;28;1526;-58
2021/03/21 08:50:48;;;;;;;;;;;;;;;16.84;60.92;101131.97;5056900;28;818;-65
2021/03/21 08:53:28;;;;;;;;;;;;;;;16.81;60.13;101132.13;5056312;28;1712;-65
2021/03/21 08:56:14;;;;;;;;;;;;;;;16.80;59.97;101130.44;5053822;28;1557;-65
2021/03/21 08:58:41;;;;;;;;;;;;;;;16.82;59.86;101129.41;5053663;28;1513;-64
2021/03/21 09:01:11;;;;;;;;;;;;;;;16.82;60.94;101131.22;5057313;28;833;-58
2021/03/21 09:03:36;;;;;;;;;;;;;;;16.79;60.56;101118.94;5056614;28;1419;-65
2021/03/21 09:06:02;;;;;;;;;;;;;;;16.85;60.46;101125.63;5056830;28;1910;-59
2021/03/21 09:08:29;;;;;;;;;;;;;;;16.83;61.15;101128.44;5057443;28;795;-65
2021/03/21 09:10:55;;;;;;;;;;;;;;;16.83;59.96;101114.22;5038484;28;1564;-59
2021/03/21 09:13:22;;;;;;;;;;;;;;;16.85;60.76;101113.16;5055492;28;1772;-65
2021/03/21 09:16:08;;;;;;;;;;;;;;;16.85;61.02;101122.97;5056028;28;1849;-59
2021/03/21 09:18:35;;;;;;;;;;;;;;;16.84;60.01;101123.94;5020960;28;1693;-65
2021/03/21 09:21:16;;;;;;;;;;;;;;;16.83;59.72;101109.75;5038788;28;1576;-58
2021/03/21 09:23:46;;;;;;;;;;;;;;;16.85;60.56;101118.50;5056615;28;1537;-66
2021/03/21 09:26:12;;;;;;;;;;;;;;;16.82;61.09;101097.34;5035702;28;1969;-59
2021/03/21 09:28:38;;;;;;;;;;;;;;;16.83;60.63;101103.53;5054981;28;1804;-65
2021/03/21 09:31:08;;;;;;;;;;;;;;;16.81;61.33;101089.41;5055415;28;1677;-65
2021/03/21 09:33:40;;;;;;;;;;;;;;;16.83;61.29;101092.84;5038311;28;1449;-66
2021/03/21 09:36:15;;;;;;;;;;;;;;;16.84;61.05;101083.88;5056049;28;1482;-58
2021/03/21 09:38:45;;;;;;;;;;;;;;;16.84;60.09;101081.22;5038388;28;1609;-58
2021/03/21 09:41:11;;;;;;;;;;;;;;;16.83;61.15;101083.03;5054712;28;1312;-59
2021/03/21 09:43:37;;;;;;;;;;;;;;;16.88;59.97;101077.34;5038040;28;1565;-65
2021/03/21 09:46:05;;;;;;;;;;;;;;;16.87;60.27;101078.28;5054883;28;1960;-59
2021/03/21 09:48:31;;;;;;;;;;;;;;;16.84;60.00;101076.72;5036824;28;1340;-59
2021/03/21 09:51:04;;;;;;;;;;;;;;;16.90;60.40;101084.28;5056419;28;800;-58
2021/03/21 09:53:35;;;;;;;;;;;;;;;16.89;60.22;101079.03;5053737;28;1705;-58
2021/03/21 09:56:24;;;;;;;;;;;;;;;16.87;61.51;101072.97;5035469;28;1553;-59
2021/03/21 09:58:59;;;;;;;;;;;;;;;16.88;60.79;101082.69;5055118;28;1553;-65
2021/03/21 10:01:43;;;;;;;;;;;;;;;16.88;60.32;101080.03;5056168;28;1518;-65
2021/03/21 10:04:22;;;;;;;;;;;;;;;16.86;61.04;101082.78;5054994;28;1580;-58
2021/03/21 10:06:49;;;;;;;;;;;;;;;16.89;60.04;101065.69;5054508;28;1959;-59
2021/03/21 10:09:19;;;;;;;;;;;;;;;16.92;61.24;101076.16;5054104;28;1365;-58
2021/03/21 10:11:50;;;;;;;;;;;;;;;16.94;60.57;101063.53;5054367;28;1354;-65
2021/03/21 10:14:21;;;;;;;;;;;;;;;16.92;61.10;101065.47;5051294;28;1561;-59
2021/03/21 10:16:46;;;;;;;;;;;;;;;16.96;61.24;101055.41;5038285;28;1171;-59
2021/03/21 10:19:12;;;;;;;;;;;;;;;16.95;61.15;101046.56;5054903;28;1759;-65
2021/03/21 10:21:39;;;;;;;;;;;;;;;16.98;60.83;101057.00;5054995;28;1641;-65
2021/03/21 10:24:06;;;;;;;;;;;;;;;16.94;61.53;101047.50;5055186;28;1643;-66
2021/03/21 10:26:32;;;;;;;;;;;;;;;16.95;61.04;101049.22;5054678;28;1977;-59
2021/03/21 10:28:59;;;;;;;;;;;;;;;16.97;59.90;101052.63;5055346;28;1639;-66
2021/03/21 10:31:25;;;;;;;;;;;;;;;16.96;61.44;101052.75;5055326;28;810;-65
2021/03/21 10:33:55;;;;;;;;;;;;;;;16.98;60.33;101037.44;5054807;28;1799;-65
2021/03/21 10:36:42;;;;;;;;;;;;;;;16.96;60.21;101040.22;5036580;28;1445;-65
2021/03/21 10:39:09;;;;;;;;;;;;;;;16.98;60.04;101022.25;5052203;28;1369;-59
2021/03/21 10:41:53;;;;;;;;;;;;;;;16.97;59.90;101028.59;5036298;28;1584;-59
2021/03/21 10:44:20;;;;;;;;;;;;;;;16.95;61.04;101018.97;5050383;28;1541;-66
2021/03/21 10:46:50;;;;;;;;;;;;;;;16.99;61.00;101015.97;5055501;28;1899;-66
2021/03/21 10:49:34;;;;;;;;;;;;;;;17.00;61.19;101009.63;5054533;28;1517;-59
2021/03/21 10:52:05;;;;;;;;;;;;;;;17.01;60.80;101006.00;5031002;28;1612;-59
2021/03/21 10:54:31;;;;;;;;;;;;;;;17.02;60.18;101012.19;5053738;28;1559;-58
2021/03/21 10:57:14;;;;;;;;;;;;;;;17.04;60.61;101016.44;5053347;28;1342;-66
2021/03/21 11:00:00;;;;;;;;;;;;;;;17.07;60.70;101010.03;5036613;28;1550;-58
2021/03/21 11:02:25;;;;;;;;;;;;;;;17.06;60.17;100993.13;5054824;28;1435;-59
2021/03/21 11:05:04;;;;;;;;;;;;;;;17.07;61.13;101005.53;5053562;28;1720;-59
2021/03/21 11:07:30;;;;;;;;;;;;;;;17.10;61.13;101004.44;5053929;28;1965;-66
2021/03/21 11:10:04;;;;;;;;;;;;;;;17.06;61.19;100987.78;5053372;28;1712;-59
2021/03/21 11:12:34;;;;;;;;;;;;;;;17.06;61.84;100992.28;5053372;28;1361;-60
2021/03/21 11:15:15;;;;;;;;;;;;;;;17.10;61.51;100999.09;5054068;28;1408;-66
2021/03/21 11:17:41;;;;;;;;;;;;;;;17.07;60.41;100983.31;5030638;28;744;-62
2021/03/21 11:20:21;;;;;;;;;;;;;;;17.10;59.92;100989.25;5052727;28;1564;-65
2021/03/21 11:22:46;;;;;;;;;;;;;;;17.10;59.89;100978.56;5053966;28;1559;-65
2021/03/21 11:25:15;;;;;;;;;;;;;;;17.08;61.07;100969.81;5052954;28;1505;-59
2021/03/21 11:27:47;;;;;;;;;;;;;;;17.12;60.17;100954.41;5053720;28;1910;-59
2021/03/21 11:30:14;;;;;;;;;;;;;;;17.10;61.42;100973.22;5053141;28;1428;-64
2021/03/21 11:32:40;;;;;;;;;;;;;;;17.08;61.15;100977.84;5054403;28;1097;-59
2021/03/21 11:35:12;;;;;;;;;;;;;;;17.06;61.01;100963.75;5053701;28;1535;-59
2021/03/21 11:37:39;;;;;;;;;;;;;;;17.08;60.12;100974.31;5053709;28;1385;-65
2021/03/21 11:40:14;;;;;;;;;;;;;;;17.03;61.32;100964.00;5053891;28;1577;-59
2021/03/21 11:42:43;;;;;;;;;;;;;;;17.05;60.84;100964.72;5053263;28;1561;-58
2021/03/21 11:45:17;;;;;;;;;;;;;;;17.12;61.38;100948.22;5053188;28;1238;-59
2021/03/21 11:47:44;;;;;;;;;;;;;;;17.11;60.13;100942.03;5054719;28;1886;-59
2021/03/21 11:50:18;;;;;;;;;;;;;;;17.08;60.40;100931.56;5053282;28;1535;-59
2021/03/21 11:52:44;;;;;;;;;;;;;;;17.08;60.10;100915.53;5054517;28;836;-66
2021/03/21 11:55:13;;;;;;;;;;;;;;;17.09;61.66;100911.91;5053307;28;1719;-65
2021/03/21 11:57:48;;;;;;;;;;;;;;;17.12;60.81;100910.81;5053676;28;1508;-66
2021/03/21 12:00:19;;;;;;;;;;;;;;;17.14;60.79;100919.56;5053493;28;1744;-59
2021/03/21 12:02:49;;;;;;;;;;;;;;;17.14;60.02;100908.88;5036194;28;1743;-66
2021/03/21 12:05:17;;;;;;;;;;;;;;;17.13;61.00;100907.16;5054059;28;833;-59
2021/03/21 12:07:42;;;;;;;;;;;;;;;17.13;60.81;100904.47;5052744;28;1957;-59
2021/03/21 12:10:14;;;;;;;;;;;;;;;17.15;60.93;100891.84;5053330;28;1524;-60
2021/03/21 12:12:41;;;;;;;;;;;;;;;17.14;60.66;100887.50;5053446;28;1373;-59
2021/03/21 12:15:14;;;;;;;;;;;;;;;17.15;60.93;100895.41;5053242;28;1365;-62
2021/03/21 12:17:41;;;;;;;;;;;;;;;17.15;60.56;100891.84;5054320;28;907;-66
2021/03/21 12:20:25;;;;;;;;;;;;;;;17.15;60.36;100878.50;5053016;28;1492;-59
2021/03/21 12:22:51;;;;;;;;;;;;;;;17.19;60.97;100872.81;5048798;28;1751;-65
2021/03/21 12:25:30;;;;;;;;;;;;;;;17.17;60.94;100876.53;5053526;28;1396;-58
2021/03/21 12:28:22;;;;;;;;;;;;;;;17.12;61.16;100868.06;5053191;28;1977;-62
2021/03/21 12:30:49;;;;;;;;;;;;;;;17.17;59.96;100873.88;5046847;28;1641;-59
2021/03/21 12:33:24;;;;;;;;;;;;;;;17.22;60.54;100869.88;5057422;28;829;-66
2021/03/21 12:35:50;;;;;;;;;;;;;;;17.17;61.29;100868.53;5057549;28;888;-65
2021/03/21 12:38:32;;;;;;;;;;;;;;;17.15;60.98;100881.16;5056915;28;1531;-59
2021/03/21 12:40:58;;;;;;;;;;;;;;;17.08;61.64;100865.63;5056972;28;1752;-63
2021/03/21 12:43:32;;;;;;;;;;;;;;;17.09;61.19;100869.16;5056836;28;1755;-64
2021/03/21 12:46:11;;;;;;;;;;;;;;;17.05;61.74;100854.31;5056642;28;1889;-59
2021/03/21 12:48:45;;;;;;;;;;;;;;;17.04;61.24;100855.31;5039053;28;1602;-66
2021/03/21 12:51:15;;;;;;;;;;;;;;;17.05;61.58;100854.31;5057770;28;758;-58
2021/03/21 12:53:40;;;;;;;;;;;;;;;17.06;61.45;100851.53;5056103;28;1811;-66
2021/03/21 12:56:05;;;;;;;;;;;;;;;17.05;60.70;100836.47;5056314;28;1397;-59
2021/03/21 12:58:30;;;;;;;;;;;;;;;17.05;61.88;100841.81;5055880;28;1373;-58
2021/03/21 13:00:56;;;;;;;;;;;;;;;17.08;60.99;100827.38;5057555;28;769;-58
2021/03/21 13:03:32;;;;;;;;;;;;;;;17.05;61.39;100833.81;5038451;28;1499;-60
2021/03/21 13:05:58;;;;;;;;;;;;;;;17.06;60.32;100851.53;5038690;28;1902;-66
2021/03/21 13:08:23;;;;;;;;;;;;;;;17.08;61.25;100844.25;5039644;28;1256;-65
2021/03/21 13:10:49;;;;;;;;;;;;;;;17.07;60.89;100837.22;5052257;28;1371;-59